createdAt,value
2019-04-10T00:00:35.731Z,47.90
2019-04-10T00:02:10.587Z,48.68
2019-04-10T00:03:44.825Z,52.08
2019-04-10T00:05:19.864Z,50.78
2019-04-10T00:07:07.806Z,50.10
2019-04-10T00:08:30.534Z,48.20
2019-04-10T00:10:06.164Z,50.12
2019-04-10T00:11:40.986Z,48.83
2019-04-10T00:13:15.341Z,49.38
2019-04-10T00:14:50.530Z,47.67
2019-04-10T00:16:24.810Z,48.28
2019-04-10T00:17:59.854Z,51.25
2019-04-10T00:19:35.735Z,50.38
2019-04-10T00:21:11.270Z,50.30
2019-04-10T00:22:46.545Z,49.45
2019-04-10T00:24:21.958Z,49.23
2019-04-10T00:25:57.269Z,47.30
2019-04-10T00:27:31.738Z,48.45
2019-04-10T00:29:05.969Z,48.28
2019-04-10T00:30:40.979Z,48.50
2019-04-10T00:32:16.114Z,47.53
2019-04-10T00:33:51.378Z,47.03
2019-04-10T00:35:25.792Z,43.87
2019-04-10T00:37:01.668Z,45.67
2019-04-10T00:38:37.958Z,46.02
2019-04-10T00:40:12.387Z,44.00
2019-04-10T00:41:46.223Z,43.20
2019-04-10T00:43:20.687Z,42.03
2019-04-10T00:44:54.949Z,42.67
2019-04-10T00:46:30.388Z,42.93
2019-04-10T00:48:05.779Z,41.42
2019-04-10T00:49:40.355Z,44.00
2019-04-10T00:51:15.206Z,43.75
2019-04-10T00:52:49.708Z,42.38
2019-04-10T00:54:24.260Z,40.48
2019-04-10T00:55:58.556Z,42.20
2019-04-10T00:57:33.752Z,41.45
2019-04-10T00:59:08.934Z,41.70
2019-04-10T01:00:43.744Z,44.37
2019-04-10T01:02:18.557Z,40.35
2019-04-10T01:03:53.907Z,38.63
2019-04-10T01:05:28.432Z,39.13
2019-04-10T01:07:04.123Z,39.05
2019-04-10T01:08:38.683Z,40.60
2019-04-10T01:10:14.287Z,39.20
2019-04-10T01:11:49.679Z,40.33
2019-04-10T01:13:25.025Z,39.13
2019-04-10T01:15:00.189Z,40.28
2019-04-10T01:16:35.582Z,38.40
2019-04-10T01:18:10.951Z,39.75
2019-04-10T01:19:45.357Z,38.63
2019-04-10T01:21:19.989Z,39.90
2019-04-10T01:22:55.246Z,39.48
2019-04-10T01:24:30.098Z,40.80
2019-04-10T01:26:05.191Z,38.75
2019-04-10T01:27:41.035Z,38.83
2019-04-10T01:29:15.714Z,37.65
2019-04-10T01:30:50.742Z,39.92
2019-04-10T01:32:25.820Z,44.85
2019-04-10T01:34:01.037Z,45.98
2019-04-10T01:35:35.479Z,40.03
2019-04-10T01:37:10.415Z,41.08
2019-04-10T01:38:44.744Z,39.85
2019-04-10T01:40:19.186Z,40.80
2019-04-10T01:41:54.747Z,39.75
2019-04-10T01:43:29.286Z,39.80
2019-04-10T01:45:04.963Z,42.93
2019-04-10T01:46:40.229Z,40.98
2019-04-10T01:48:15.405Z,42.78
2019-04-10T01:49:50.348Z,42.08
2019-04-10T01:51:25.553Z,42.58
2019-04-10T01:53:00.126Z,42.93
2019-04-10T01:54:35.367Z,43.83
2019-04-10T01:56:21.238Z,41.77
2019-04-10T01:57:46.683Z,43.80
2019-04-10T01:59:23.625Z,43.75
2019-04-10T02:01:08.358Z,44.77
2019-04-10T02:02:47.778Z,42.80
2019-04-10T02:04:22.774Z,42.25
2019-04-10T02:05:57.243Z,46.00
2019-04-10T02:07:31.920Z,41.08
2019-04-10T02:09:09.393Z,44.58
2019-04-10T02:10:44.622Z,45.35
2019-04-10T02:12:19.147Z,44.23
2019-04-10T02:13:54.024Z,42.75
2019-04-10T02:15:28.775Z,42.65
2019-04-10T02:17:04.182Z,45.48
2019-04-10T02:18:38.858Z,43.17
2019-04-10T02:20:14.620Z,43.33
2019-04-10T02:21:49.754Z,42.43
2019-04-10T02:23:24.221Z,44.03
2019-04-10T02:24:59.528Z,43.48
2019-04-10T02:26:33.954Z,44.85
2019-04-10T02:28:09.002Z,43.70
2019-04-10T02:29:43.961Z,42.80
2019-04-10T02:31:22.010Z,45.03
2019-04-10T02:32:57.931Z,43.83
2019-04-10T02:34:32.788Z,42.03
2019-04-10T02:36:08.449Z,42.95
2019-04-10T02:37:43.434Z,43.25
2019-04-10T02:39:27.626Z,46.85
2019-04-10T02:40:55.601Z,45.38
2019-04-10T02:42:30.279Z,45.65
2019-04-10T02:44:05.143Z,46.95
2019-04-10T02:45:40.381Z,45.92
2019-04-10T02:47:16.753Z,48.63
2019-04-10T02:48:51.975Z,45.67
2019-04-10T02:50:27.291Z,45.95
2019-04-10T02:52:01.782Z,47.13
2019-04-10T02:53:37.389Z,46.53
2019-04-10T02:55:12.025Z,50.03
2019-04-10T02:56:47.786Z,47.17
2019-04-10T02:58:22.439Z,46.37
2019-04-10T02:59:57.683Z,48.02
2019-04-10T03:01:33.397Z,48.65
2019-04-10T03:03:07.846Z,46.33
2019-04-10T03:04:42.516Z,44.58
2019-04-10T03:06:18.892Z,46.23
2019-04-10T03:07:53.246Z,44.45
2019-04-10T03:09:41.801Z,46.08
2019-04-10T03:11:06.607Z,44.40
2019-04-10T03:12:41.014Z,45.80
2019-04-10T03:14:16.831Z,45.83
2019-04-10T03:15:51.836Z,48.73
2019-04-10T03:17:26.410Z,48.23
2019-04-10T03:19:01.245Z,47.90
2019-04-10T03:20:35.681Z,45.95
2019-04-10T03:22:10.485Z,47.98
2019-04-10T03:23:45.454Z,46.60
2019-04-10T03:25:21.146Z,46.75
2019-04-10T03:26:56.194Z,46.60
2019-04-10T03:28:31.974Z,46.33
2019-04-10T03:30:08.296Z,45.30
2019-04-10T03:31:45.072Z,48.00
2019-04-10T03:33:24.584Z,48.28
2019-04-10T03:34:58.562Z,45.73
2019-04-10T03:36:37.880Z,46.48
2019-04-10T03:38:12.557Z,46.60
2019-04-10T03:39:46.913Z,47.10
2019-04-10T03:41:21.212Z,45.08
2019-04-10T03:42:55.482Z,47.13
2019-04-10T03:44:30.451Z,44.63
2019-04-10T03:46:05.429Z,45.88
2019-04-10T03:47:39.828Z,45.25
2019-04-10T03:49:14.133Z,44.10
2019-04-10T03:50:48.805Z,45.67
2019-04-10T03:52:25.261Z,47.17
2019-04-10T03:54:00.571Z,46.10
2019-04-10T03:55:35.279Z,49.53
2019-04-10T03:57:10.114Z,46.85
2019-04-10T03:58:44.643Z,48.52
2019-04-10T04:00:20.891Z,50.05
2019-04-10T04:01:55.517Z,51.42
2019-04-10T04:03:30.794Z,48.68
2019-04-10T04:05:06.639Z,51.37
2019-04-10T04:06:42.048Z,45.70
2019-04-10T04:08:16.345Z,51.30
2019-04-10T04:09:51.573Z,52.60
2019-04-10T04:11:26.087Z,47.35
2019-04-10T04:13:01.494Z,51.73
2019-04-10T04:14:36.686Z,49.77
2019-04-10T04:16:11.371Z,49.15
2019-04-10T04:17:46.492Z,52.98
2019-04-10T04:19:21.795Z,53.10
2019-04-10T04:20:56.337Z,54.40
2019-04-10T04:22:30.767Z,59.90
2019-04-10T04:24:05.096Z,63.02
2019-04-10T04:25:39.388Z,62.75
2019-04-10T04:27:15.236Z,53.48
2019-04-10T04:28:50.191Z,56.18
2019-04-10T04:30:24.717Z,54.48
2019-04-10T04:31:59.160Z,54.23
2019-04-10T04:33:34.072Z,50.75
2019-04-10T04:35:09.188Z,49.45
2019-04-10T04:36:43.424Z,53.05
2019-04-10T04:38:17.878Z,54.30
2019-04-10T04:39:52.234Z,53.70
2019-04-10T04:41:27.391Z,51.60
2019-04-10T04:43:01.693Z,52.90
2019-04-10T04:44:35.922Z,54.27
2019-04-10T04:46:10.226Z,50.65
2019-04-10T04:47:44.984Z,53.08
2019-04-10T04:49:19.312Z,54.20
2019-04-10T04:50:54.421Z,51.00
2019-04-10T04:52:29.215Z,50.28
2019-04-10T04:54:04.551Z,51.30
2019-04-10T04:55:39.451Z,56.13
2019-04-10T04:57:14.915Z,64.65
2019-04-10T04:58:49.683Z,67.65
2019-04-10T05:00:25.689Z,71.87
2019-04-10T05:02:01.244Z,70.42
2019-04-10T05:03:37.555Z,63.42
2019-04-10T05:05:11.923Z,57.55
2019-04-10T05:06:47.713Z,62.85
2019-04-10T05:08:23.687Z,63.08
2019-04-10T05:10:00.220Z,64.47
2019-04-10T05:11:34.384Z,61.88
2019-04-10T05:13:08.789Z,64.50
2019-04-10T05:14:44.030Z,69.67
2019-04-10T05:16:18.658Z,70.62
2019-04-10T05:17:53.543Z,74.65
2019-04-10T05:19:28.198Z,79.12
2019-04-10T05:21:03.057Z,83.52
2019-04-10T05:22:37.425Z,73.00
2019-04-10T05:24:11.753Z,70.95
2019-04-10T05:25:46.247Z,74.15
2019-04-10T05:27:20.555Z,68.57
2019-04-10T05:28:54.991Z,57.48
2019-04-10T05:30:29.247Z,55.40
2019-04-10T05:32:03.709Z,55.98
2019-04-10T05:33:38.708Z,56.65
2019-04-10T05:35:12.993Z,59.53
2019-04-10T05:36:47.276Z,59.23
2019-04-10T05:38:22.807Z,54.53
2019-04-10T05:39:57.174Z,57.17
2019-04-10T05:41:31.513Z,58.58
2019-04-10T05:43:05.917Z,52.98
2019-04-10T05:44:40.426Z,54.33
2019-04-10T05:46:16.536Z,56.88
2019-04-10T05:47:51.167Z,58.08
2019-04-10T05:49:25.448Z,57.53
2019-04-10T05:51:04.345Z,56.05
2019-04-10T05:52:35.996Z,56.02
2019-04-10T05:54:10.581Z,57.25
2019-04-10T05:55:47.239Z,56.40
2019-04-10T05:57:24.513Z,56.75
2019-04-10T05:58:58.849Z,53.60
2019-04-10T06:00:34.847Z,51.13
2019-04-10T06:02:09.394Z,50.65
2019-04-10T06:03:45.590Z,48.92
2019-04-10T06:05:20.595Z,51.83
2019-04-10T06:06:56.865Z,55.78
2019-04-10T06:08:31.240Z,54.60
2019-04-10T06:10:10.227Z,54.83
2019-04-10T06:11:45.611Z,53.68
2019-04-10T06:13:19.985Z,55.90
2019-04-10T06:14:54.655Z,54.25
2019-04-10T06:16:30.325Z,52.17
2019-04-10T06:18:04.991Z,54.40
2019-04-10T06:19:40.469Z,51.73
2019-04-10T06:21:15.018Z,53.95
2019-04-10T06:22:50.617Z,53.33
2019-04-10T06:24:25.310Z,50.17
2019-04-10T06:26:00.519Z,47.85
2019-04-10T06:27:34.955Z,48.87
2019-04-10T06:29:10.546Z,49.35
2019-04-10T06:30:45.171Z,50.60
2019-04-10T06:32:19.464Z,48.33
2019-04-10T06:33:53.754Z,48.78
2019-04-10T06:35:28.316Z,50.50
2019-04-10T06:37:03.939Z,47.62
2019-04-10T06:38:39.151Z,47.00
2019-04-10T06:40:19.219Z,46.45
2019-04-10T06:41:50.624Z,47.90
2019-04-10T06:43:25.283Z,46.68
2019-04-10T06:45:01.012Z,45.15
2019-04-10T06:46:37.608Z,44.75
2019-04-10T06:48:11.472Z,45.45
2019-04-10T06:49:46.092Z,47.15
2019-04-10T06:51:21.594Z,46.98
2019-04-10T06:52:56.889Z,44.73
2019-04-10T06:54:31.699Z,44.10
2019-04-10T06:56:06.892Z,46.70
2019-04-10T06:57:49.193Z,48.87
2019-04-10T06:59:17.376Z,47.50
2019-04-10T07:00:54.573Z,46.83
2019-04-10T07:02:30.836Z,45.83
2019-04-10T07:04:07.625Z,47.00
2019-04-10T07:05:49.385Z,40.92
2019-04-10T07:07:20.275Z,37.93
2019-04-10T07:08:53.390Z,42.48
2019-04-10T07:10:37.201Z,40.38
2019-04-10T07:12:04.742Z,40.33
2019-04-10T07:13:40.451Z,40.00
2019-04-10T07:15:22.103Z,37.40
2019-04-10T07:16:52.894Z,36.93
2019-04-10T07:18:28.292Z,37.35
2019-04-10T07:20:03.758Z,36.03
2019-04-10T07:21:38.648Z,38.05
2019-04-10T07:23:14.532Z,42.13
2019-04-10T07:24:51.397Z,53.05
2019-04-10T07:26:35.392Z,47.70
2019-04-10T07:28:02.871Z,41.58
2019-04-10T07:29:38.323Z,47.62
2019-04-10T07:31:15.481Z,56.85
2019-04-10T07:32:50.814Z,53.20
2019-04-10T07:34:27.899Z,59.20
2019-04-10T07:36:04.281Z,50.65
2019-04-10T07:37:37.334Z,47.00
2019-04-10T07:39:13.043Z,44.42
2019-04-10T07:40:47.419Z,46.98
2019-04-10T07:42:29.388Z,42.45
2019-04-10T07:43:58.301Z,43.23
2019-04-10T07:45:35.409Z,44.60
2019-04-10T07:47:09.083Z,43.00
2019-04-10T07:48:43.556Z,41.73
2019-04-10T07:50:20.510Z,43.80
2019-04-10T07:51:54.735Z,41.48
2019-04-10T07:53:28.964Z,41.40
2019-04-10T07:55:04.393Z,43.20
2019-04-10T07:56:39.593Z,46.13
2019-04-10T07:58:15.219Z,44.48
2019-04-10T07:59:49.758Z,44.38
2019-04-10T08:01:24.267Z,61.20
2019-04-10T08:02:59.487Z,56.88
2019-04-10T08:04:35.321Z,46.92
2019-04-10T08:06:09.770Z,50.00
2019-04-10T08:07:45.211Z,47.17
2019-04-10T08:09:20.743Z,47.80
2019-04-10T08:10:55.561Z,49.42
2019-04-10T08:12:39.455Z,52.65
2019-04-10T08:14:08.207Z,40.17
2019-04-10T08:15:41.698Z,53.30
2019-04-10T08:17:21.787Z,49.18
2019-04-10T08:18:57.826Z,50.95
2019-04-10T08:20:32.696Z,62.67
2019-04-10T08:22:08.569Z,79.00
2019-04-10T08:23:43.174Z,57.90
2019-04-10T08:25:18.462Z,58.23
2019-04-10T08:26:52.899Z,58.92
2019-04-10T08:28:30.467Z,46.95
2019-04-10T08:30:03.483Z,60.88
2019-04-10T08:31:37.702Z,51.75
2019-04-10T08:33:14.058Z,54.13
2019-04-10T08:34:49.800Z,54.45
2019-04-10T08:36:25.585Z,52.23
2019-04-10T08:38:01.205Z,53.10
2019-04-10T08:39:41.668Z,48.08
2019-04-10T08:41:13.162Z,53.15
2019-04-10T08:42:47.649Z,46.13
2019-04-10T08:44:22.239Z,38.80
2019-04-10T08:45:56.904Z,41.33
2019-04-10T08:47:31.411Z,40.48
2019-04-10T08:49:05.898Z,40.25
2019-04-10T08:50:40.194Z,52.20
2019-04-10T08:52:16.550Z,48.33
2019-04-10T08:53:53.642Z,43.42
2019-04-10T08:55:28.148Z,42.15
2019-04-10T08:57:03.273Z,38.00
2019-04-10T08:58:37.797Z,36.73
2019-04-10T09:00:12.416Z,34.15
2019-04-10T09:01:47.248Z,33.95
2019-04-10T09:03:22.478Z,34.88
2019-04-10T09:04:57.352Z,33.13
2019-04-10T09:06:31.738Z,34.00
2019-04-10T09:08:06.248Z,32.90
2019-04-10T09:09:42.233Z,31.85
2019-04-10T09:11:25.571Z,31.97
2019-04-10T09:12:54.537Z,33.90
2019-04-10T09:14:29.514Z,35.25
2019-04-10T09:16:04.554Z,36.50
2019-04-10T09:17:39.675Z,35.78
2019-04-10T09:19:14.287Z,27.48
2019-04-10T09:20:49.098Z,30.27
2019-04-10T09:22:24.636Z,29.35
2019-04-10T09:24:00.310Z,31.50
2019-04-10T09:25:35.879Z,33.78
2019-04-10T09:27:10.969Z,32.30
2019-04-10T09:28:46.549Z,32.53
2019-04-10T09:30:21.298Z,26.23
2019-04-10T09:31:55.807Z,32.13
2019-04-10T09:33:32.209Z,31.45
2019-04-10T09:35:08.778Z,36.23
2019-04-10T09:36:43.717Z,33.98
2019-04-10T09:38:18.839Z,37.78
2019-04-10T09:39:54.872Z,37.58
2019-04-10T09:41:30.022Z,36.77
2019-04-10T09:43:05.095Z,32.73
2019-04-10T09:44:40.089Z,34.88
2019-04-10T09:46:14.445Z,32.48
2019-04-10T09:47:48.799Z,35.10
2019-04-10T09:49:33.778Z,37.40
2019-04-10T09:51:00.199Z,41.08
2019-04-10T09:52:35.660Z,35.98
2019-04-10T09:54:10.439Z,37.83
2019-04-10T09:55:46.857Z,43.17
2019-04-10T09:57:22.470Z,47.90
2019-04-10T09:58:57.049Z,46.02
2019-04-10T10:00:33.956Z,43.35
2019-04-10T10:02:09.244Z,38.02
2019-04-10T10:03:44.434Z,35.90
2019-04-10T10:05:20.289Z,33.60
2019-04-10T10:06:55.725Z,31.05
2019-04-10T10:08:31.610Z,30.57
2019-04-10T10:10:08.728Z,32.48
2019-04-10T10:11:43.514Z,31.30
2019-04-10T10:13:17.765Z,28.92
2019-04-10T10:14:52.122Z,30.08
2019-04-10T10:16:27.482Z,31.02
2019-04-10T10:18:03.386Z,31.70
2019-04-10T10:19:39.157Z,33.28
2019-04-10T10:21:14.425Z,32.65
2019-04-10T10:22:49.508Z,32.85
2019-04-10T10:24:24.648Z,37.40
2019-04-10T10:26:01.652Z,36.40
2019-04-10T10:27:36.159Z,35.80
2019-04-10T10:29:11.303Z,35.15
2019-04-10T10:30:47.297Z,35.23
2019-04-10T10:32:21.799Z,34.78
2019-04-10T10:33:56.532Z,28.55
2019-04-10T10:35:31.376Z,27.85
2019-04-10T10:37:08.304Z,28.87
2019-04-10T10:38:43.357Z,28.25
2019-04-10T10:40:19.296Z,31.68
2019-04-10T10:41:54.447Z,32.95
2019-04-10T10:43:29.250Z,30.27
2019-04-10T10:45:05.168Z,36.73
2019-04-10T10:46:39.775Z,36.73
2019-04-10T10:48:15.452Z,31.33
2019-04-10T10:49:50.792Z,31.02
2019-04-10T10:51:25.067Z,26.65
2019-04-10T10:52:59.774Z,26.45
2019-04-10T10:54:34.933Z,28.87
2019-04-10T10:56:09.867Z,28.50
2019-04-10T10:57:44.451Z,30.55
2019-04-10T10:59:19.609Z,26.80
2019-04-10T11:00:54.018Z,26.80
2019-04-10T11:02:29.570Z,28.75
2019-04-10T11:04:04.749Z,27.20
2019-04-10T11:05:39.189Z,32.03
2019-04-10T11:07:14.437Z,24.80
2019-04-10T11:08:49.412Z,24.20
2019-04-10T11:10:27.069Z,30.70
2019-04-10T11:12:00.124Z,27.48
2019-04-10T11:13:34.787Z,27.42
2019-04-10T11:15:10.082Z,26.55
2019-04-10T11:16:46.974Z,23.42
2019-04-10T11:18:22.240Z,23.50
2019-04-10T11:19:56.511Z,24.50
2019-04-10T11:21:32.397Z,23.22
2019-04-10T11:23:06.913Z,24.18
2019-04-10T11:24:42.763Z,23.38
2019-04-10T11:26:20.534Z,23.20
2019-04-10T11:27:54.007Z,23.57
2019-04-10T11:29:28.743Z,23.65
2019-04-10T11:31:03.260Z,27.15
2019-04-10T11:32:38.233Z,27.75
2019-04-10T11:34:14.042Z,28.95
2019-04-10T11:35:48.588Z,25.37
2019-04-10T11:37:34.294Z,25.52
2019-04-10T11:39:10.616Z,30.68
2019-04-10T11:40:35.084Z,28.95
2019-04-10T11:42:10.077Z,29.48
2019-04-10T11:43:46.304Z,29.67
2019-04-10T11:45:20.765Z,39.30
2019-04-10T11:46:56.865Z,34.78
2019-04-10T11:48:32.310Z,42.55
2019-04-10T11:51:46.569Z,31.00
2019-04-10T11:53:21.498Z,26.35
2019-04-10T11:55:05.118Z,30.35
2019-04-10T11:56:33.775Z,29.55
2019-04-10T11:58:08.579Z,27.25
2019-04-10T11:59:48.459Z,23.65
2019-04-10T12:01:22.834Z,24.37
2019-04-10T12:02:58.745Z,25.82
2019-04-10T12:04:44.495Z,21.50
2019-04-10T12:06:08.136Z,21.33
2019-04-10T12:09:58.703Z,21.57
2019-04-10T12:12:30.507Z,21.68
2019-04-10T12:14:05.044Z,21.55
2019-04-10T12:15:40.692Z,23.05
2019-04-10T12:17:16.036Z,21.60
2019-04-10T12:18:50.964Z,22.40
2019-04-10T12:20:25.378Z,25.57
2019-04-10T12:21:59.667Z,24.10
2019-04-10T12:23:34.733Z,22.00
2019-04-10T12:25:12.388Z,20.77
2019-04-10T12:26:46.158Z,23.20
2019-04-10T12:28:20.413Z,21.10
2019-04-10T12:29:55.106Z,21.90
2019-04-10T12:31:30.503Z,19.25
2019-04-10T12:33:05.399Z,18.95
2019-04-10T12:34:40.301Z,19.42
2019-04-10T12:36:14.798Z,20.50
2019-04-10T12:37:58.626Z,19.50
2019-04-10T12:39:25.523Z,16.35
2019-04-10T12:40:59.866Z,18.02
2019-04-10T12:42:34.548Z,18.25
2019-04-10T12:44:09.590Z,18.48
2019-04-10T12:45:44.387Z,17.30
2019-04-10T12:47:19.001Z,16.45
2019-04-10T12:48:53.284Z,17.23
2019-04-10T12:50:28.693Z,16.67
2019-04-10T12:52:03.165Z,16.45
2019-04-10T12:53:38.063Z,16.90
2019-04-10T12:55:12.782Z,14.05
2019-04-10T12:56:48.470Z,14.43
2019-04-10T12:58:23.069Z,14.68
2019-04-10T13:00:01.216Z,14.60
2019-04-10T13:01:33.381Z,14.90
2019-04-10T13:03:08.327Z,14.93
2019-04-10T13:04:44.843Z,14.87
2019-04-10T13:06:20.001Z,14.63
2019-04-10T13:07:54.557Z,15.43
2019-04-10T13:09:29.611Z,16.02
2019-04-10T13:11:04.498Z,17.12
2019-04-10T13:12:39.747Z,15.58
2019-04-10T13:14:14.752Z,15.72
2019-04-10T13:15:49.761Z,14.23
2019-04-10T13:17:24.832Z,15.25
2019-04-10T13:19:00.577Z,14.53
2019-04-10T13:20:35.194Z,14.95
2019-04-10T13:22:09.628Z,14.05
2019-04-10T13:23:44.753Z,14.63
2019-04-10T13:25:19.370Z,14.50
2019-04-10T13:26:55.043Z,14.75
2019-04-10T13:28:29.709Z,13.60
2019-04-10T13:30:12.570Z,14.78
2019-04-10T13:31:46.715Z,14.95
2019-04-10T13:33:21.290Z,15.13
2019-04-10T13:34:56.225Z,17.92
2019-04-10T13:36:31.374Z,22.87
2019-04-10T13:38:06.793Z,21.70
2019-04-10T13:39:41.397Z,21.57
2019-04-10T13:41:16.468Z,22.48
2019-04-10T13:42:51.576Z,60.80
2019-04-10T13:44:26.645Z,57.08
2019-04-10T13:46:01.005Z,21.87
2019-04-10T13:47:35.575Z,34.25
2019-04-10T13:49:09.838Z,22.42
2019-04-10T13:50:44.542Z,27.22
2019-04-10T13:52:18.759Z,22.32
2019-04-10T13:53:55.111Z,24.00
2019-04-10T13:55:30.440Z,21.52
2019-04-10T13:57:05.709Z,19.00
2019-04-10T13:58:40.369Z,19.80
2019-04-10T14:00:23.817Z,19.40
2019-04-10T14:01:58.492Z,17.82
2019-04-10T14:03:32.823Z,22.27
2019-04-10T14:05:11.761Z,20.68
2019-04-10T14:06:49.136Z,21.90
2019-04-10T14:08:33.772Z,19.15
2019-04-10T14:09:58.682Z,16.82
2019-04-10T14:11:33.344Z,20.90
2019-04-10T14:13:07.944Z,18.95
2019-04-10T14:14:42.503Z,19.73
2019-04-10T14:16:17.022Z,26.45
2019-04-10T14:17:52.125Z,21.55
2019-04-10T14:19:28.258Z,18.10
2019-04-10T14:21:07.509Z,24.35
2019-04-10T14:22:40.098Z,15.00
2019-04-10T14:24:14.386Z,15.45
2019-04-10T14:26:06.504Z,14.33
2019-04-10T14:27:42.587Z,17.50
2019-04-10T14:29:18.949Z,20.97
2019-04-10T14:30:55.712Z,17.87
2019-04-10T14:32:31.958Z,15.93
2019-04-10T14:34:07.335Z,44.10
2019-04-10T14:35:43.121Z,16.80
2019-04-10T14:37:17.607Z,16.27
2019-04-10T14:38:55.002Z,18.20
2019-04-10T14:40:30.498Z,16.52
2019-04-10T14:42:04.864Z,14.63
2019-04-10T14:43:39.737Z,14.87
2019-04-10T14:45:14.502Z,15.40
2019-04-10T14:46:49.709Z,15.13
2019-04-10T14:48:24.450Z,16.70
2019-04-10T14:49:59.631Z,22.80
2019-04-10T14:51:34.752Z,22.07
2019-04-10T14:53:09.651Z,15.32
2019-04-10T14:54:44.014Z,18.10
2019-04-10T14:56:18.254Z,16.25
2019-04-10T14:57:53.161Z,21.07
2019-04-10T14:59:28.220Z,15.18
2019-04-10T15:01:03.319Z,18.10
2019-04-10T15:02:39.665Z,16.82
2019-04-10T15:04:15.057Z,18.67
2019-04-10T15:05:51.439Z,15.75
2019-04-10T15:07:26.877Z,20.40
2019-04-10T15:09:01.401Z,19.48
2019-04-10T15:10:36.084Z,13.40
2019-04-10T15:12:10.444Z,15.75
2019-04-10T15:13:45.679Z,15.53
2019-04-10T15:15:20.556Z,13.98
2019-04-10T15:17:01.795Z,12.28
2019-04-10T15:18:33.089Z,13.85
2019-04-10T15:20:07.367Z,17.60
2019-04-10T15:21:41.598Z,19.00
2019-04-10T15:23:16.312Z,16.35
2019-04-10T15:24:51.633Z,16.97
2019-04-10T15:26:26.746Z,13.90
2019-04-10T15:28:02.145Z,16.00
2019-04-10T15:29:37.033Z,23.65
2019-04-10T15:31:11.381Z,16.32
2019-04-10T15:32:45.625Z,13.20
2019-04-10T15:34:20.482Z,14.03
2019-04-10T15:35:55.475Z,15.15
2019-04-10T15:37:31.180Z,14.40
2019-04-10T15:39:08.697Z,14.43
2019-04-10T15:40:44.068Z,12.75
2019-04-10T15:42:19.735Z,13.00
2019-04-10T15:43:55.561Z,16.20
2019-04-10T15:45:30.213Z,18.73
2019-04-10T15:47:13.644Z,18.50
2019-04-10T15:48:41.890Z,15.80
2019-04-10T15:50:16.549Z,28.70
2019-04-10T15:51:50.832Z,21.60
2019-04-10T15:53:26.391Z,26.25
2019-04-10T15:55:01.589Z,19.42
2019-04-10T15:56:36.171Z,14.60
2019-04-10T15:58:10.830Z,15.48
2019-04-10T15:59:46.307Z,15.45
2019-04-10T16:01:21.687Z,15.18
2019-04-10T16:02:57.246Z,15.45
2019-04-10T16:04:31.787Z,14.33
2019-04-10T16:06:06.236Z,15.58
2019-04-10T16:07:40.776Z,15.43
2019-04-10T16:09:15.078Z,16.15
2019-04-10T16:10:55.041Z,18.60
2019-04-10T16:12:30.370Z,21.17
2019-04-10T16:14:17.071Z,17.87
2019-04-10T16:15:43.577Z,15.75
2019-04-10T16:17:22.879Z,16.97
2019-04-10T16:19:11.964Z,18.50
2019-04-10T16:20:47.792Z,18.62
2019-04-10T16:22:27.626Z,17.23
2019-04-10T16:24:07.141Z,16.27
2019-04-10T16:25:44.765Z,16.57
2019-04-10T16:27:20.170Z,14.28
2019-04-10T16:28:55.672Z,13.95
2019-04-10T16:30:30.683Z,14.23
2019-04-10T16:32:06.829Z,15.40
2019-04-10T16:33:41.363Z,42.53
2019-04-10T16:35:15.815Z,39.50
2019-04-10T16:36:52.133Z,25.92
2019-04-10T16:38:26.810Z,21.95
2019-04-10T16:40:04.447Z,17.77
2019-04-10T16:41:38.583Z,17.20
2019-04-10T16:43:13.924Z,18.70
2019-04-10T16:44:49.182Z,20.30
2019-04-10T16:46:23.800Z,23.00
2019-04-10T16:47:58.808Z,30.85
2019-04-10T16:49:33.239Z,28.77
2019-04-10T16:51:08.015Z,29.95
2019-04-10T16:52:42.425Z,30.90
2019-04-10T16:54:18.641Z,30.50
2019-04-10T16:55:53.382Z,33.90
2019-04-10T16:57:29.029Z,43.92
2019-04-10T16:59:04.525Z,55.23
2019-04-10T17:00:39.699Z,62.78
2019-04-10T17:02:15.651Z,61.25
2019-04-10T17:03:50.099Z,59.35
2019-04-10T17:05:25.966Z,67.45
2019-04-10T17:07:00.833Z,81.95
2019-04-10T17:08:37.378Z,73.57
2019-04-10T17:10:18.385Z,57.78
2019-04-10T17:11:49.286Z,41.25
2019-04-10T17:13:24.564Z,37.98
2019-04-10T17:14:59.607Z,37.25
2019-04-10T17:16:34.262Z,30.23
2019-04-10T17:18:08.737Z,33.80
2019-04-10T17:19:46.363Z,34.45
2019-04-10T17:21:19.912Z,37.70
2019-04-10T17:22:56.217Z,38.83
2019-04-10T17:24:31.421Z,39.15
2019-04-10T17:26:08.678Z,46.25
2019-04-10T17:27:43.793Z,48.28
2019-04-10T17:29:18.876Z,48.90
2019-04-10T17:30:53.942Z,51.05
2019-04-10T17:32:29.159Z,28.00
2019-04-10T17:34:03.610Z,27.10
2019-04-10T17:35:38.396Z,22.87
2019-04-10T17:37:13.655Z,20.90
2019-04-10T17:38:48.964Z,26.20
2019-04-10T17:40:31.977Z,20.12
2019-04-10T17:42:00.029Z,29.27
2019-04-10T17:43:35.100Z,32.20
2019-04-10T17:45:12.173Z,33.30
2019-04-10T17:46:47.038Z,22.07
2019-04-10T17:48:21.995Z,19.50
2019-04-10T17:50:01.031Z,18.12
2019-04-10T17:51:36.327Z,34.35
2019-04-10T17:53:11.480Z,39.95
2019-04-10T17:54:47.106Z,33.38
2019-04-10T17:56:22.267Z,26.42
2019-04-10T17:57:58.144Z,22.10
2019-04-10T17:59:32.767Z,21.73
2019-04-10T18:01:08.985Z,29.18
2019-04-10T18:02:43.293Z,26.52
2019-04-10T18:04:17.935Z,40.98
2019-04-10T18:05:55.039Z,29.27
2019-04-10T18:07:30.186Z,30.90
2019-04-10T18:09:07.869Z,26.87
2019-04-10T18:10:48.752Z,24.40
2019-04-10T18:12:19.401Z,21.40
2019-04-10T18:13:55.254Z,24.25
2019-04-10T18:15:30.289Z,20.50
2019-04-10T18:17:06.581Z,24.10
2019-04-10T18:18:44.246Z,28.17
2019-04-10T18:20:19.994Z,25.45
2019-04-10T18:21:56.357Z,30.20
2019-04-10T18:23:31.491Z,29.15
2019-04-10T18:25:07.623Z,28.38
2019-04-10T18:26:42.234Z,25.32
2019-04-10T18:28:17.194Z,25.50
2019-04-10T18:29:51.807Z,25.97
2019-04-10T18:31:28.112Z,25.80
2019-04-10T18:33:05.085Z,25.65
2019-04-10T18:34:40.359Z,31.12
2019-04-10T18:36:15.373Z,29.00
2019-04-10T18:37:49.971Z,29.15
2019-04-10T18:39:24.638Z,30.43
2019-04-10T18:41:03.415Z,30.40
2019-04-10T18:42:35.822Z,31.73
2019-04-10T18:44:10.981Z,32.03
2019-04-10T18:45:57.468Z,30.27
2019-04-10T18:47:21.261Z,29.42
2019-04-10T18:48:56.762Z,28.45
2019-04-10T18:50:32.153Z,30.70
2019-04-10T18:52:10.886Z,39.15
2019-04-10T18:53:45.746Z,51.05
2019-04-10T18:55:20.448Z,41.60
2019-04-10T18:56:55.675Z,36.80
2019-04-10T18:58:31.904Z,34.15
2019-04-10T19:00:28.994Z,36.45
2019-04-10T19:02:13.889Z,44.27
2019-04-10T19:04:00.643Z,56.63
2019-04-10T19:05:33.984Z,52.15
2019-04-10T19:07:09.142Z,57.35
2019-04-10T19:08:43.999Z,51.28
2019-04-10T19:10:18.375Z,48.73
2019-04-10T19:11:52.844Z,38.17
2019-04-10T19:13:27.256Z,39.83
2019-04-10T19:15:01.514Z,30.85
2019-04-10T19:16:36.007Z,29.32
2019-04-10T19:18:11.911Z,30.72
2019-04-10T19:19:46.630Z,36.38
2019-04-10T19:21:21.761Z,32.63
2019-04-10T19:22:56.806Z,27.85
2019-04-10T19:24:30.737Z,25.17
2019-04-10T19:26:08.501Z,24.77
2019-04-10T19:27:42.262Z,23.10
2019-04-10T19:29:17.131Z,23.27
2019-04-10T19:31:08.055Z,22.02
2019-04-10T19:32:33.367Z,22.87
2019-04-10T19:34:09.434Z,24.32
2019-04-10T19:35:44.043Z,24.35
2019-04-10T19:37:18.562Z,25.83
2019-04-10T19:38:52.465Z,28.33
2019-04-10T19:40:27.946Z,26.80
2019-04-10T19:42:02.866Z,24.80
2019-04-10T19:43:37.979Z,26.10
2019-04-10T19:45:12.594Z,24.75
2019-04-10T19:46:48.019Z,25.90
2019-04-10T19:48:23.390Z,24.60
2019-04-10T19:49:59.150Z,24.10
2019-04-10T19:51:32.924Z,25.83
2019-04-10T19:53:07.153Z,26.15
2019-04-10T19:54:41.186Z,25.50
2019-04-10T19:56:16.052Z,27.82
2019-04-10T19:57:50.597Z,29.45
2019-04-10T19:59:25.013Z,28.17
2019-04-10T20:00:59.662Z,29.10
2019-04-10T20:02:34.976Z,29.18
2019-04-10T20:04:10.379Z,28.95
2019-04-10T20:05:44.099Z,29.43
2019-04-10T20:07:20.826Z,30.20
2019-04-10T20:08:55.647Z,29.48
2019-04-10T20:10:30.347Z,25.90
2019-04-10T20:12:04.560Z,26.12
2019-04-10T20:13:39.284Z,27.25
2019-04-10T20:15:14.097Z,26.82
2019-04-10T20:16:49.369Z,25.27
2019-04-10T20:18:24.508Z,26.60
2019-04-10T20:19:59.919Z,26.17
2019-04-10T20:21:34.498Z,26.75
2019-04-10T20:23:09.687Z,27.07
2019-04-10T20:24:43.728Z,23.87
2019-04-10T20:26:17.629Z,25.83
2019-04-10T20:27:52.121Z,24.63
2019-04-10T20:29:26.697Z,22.53
2019-04-10T20:31:01.345Z,24.20
2019-04-10T20:32:36.370Z,24.80